IBS1744 LEMG-LEMD
Flight info
| Callsign | IBS1744 |
|---|---|
| Flight time | 0h 47m |
| Altitude | 32000 |
| Route | BLN DCT MORAL |
| Aircraft | A320/M-SDE3FGHIRWY/LB1 |
Departure
| Time | 2026-05-06 16:28 |
|---|---|
| Airport | Málaga-Costa del Sol Airport (LEMG) |
Arrival
| Time | 2026-05-06 17:15 |
|---|---|
| Airport | Adolfo Suárez Madrid–Barajas Airport (LEMD) |
| Time | Latitude | Longitude | Altitude | Speed | Heading |
|---|---|---|---|---|---|
| 2026-05-06 15:54 | 36.67737 | -4.49575 | 42 ft | 0 kts | 41° |
| 2026-05-06 16:17 | 36.67730 | -4.49583 | 42 ft | 4 kts | 48° |
| 2026-05-06 16:18 | 36.67719 | -4.49608 | 42 ft | 4 kts | 99° |
| 2026-05-06 16:18 | 36.67720 | -4.49612 | 42 ft | 0 kts | 107° |
| 2026-05-06 16:21 | 36.67719 | -4.49611 | 42 ft | 1 kts | 107° |
| 2026-05-06 16:21 | 36.67710 | -4.49610 | 42 ft | 3 kts | 177° |
| 2026-05-06 16:21 | 36.67670 | -4.49605 | 42 ft | 9 kts | 168° |
| 2026-05-06 16:21 | 36.67603 | -4.49624 | 41 ft | 12 kts | 220° |
| 2026-05-06 16:22 | 36.67562 | -4.49701 | 43 ft | 10 kts | 276° |
| 2026-05-06 16:22 | 36.67597 | -4.49763 | 43 ft | 8 kts | 311° |
| 2026-05-06 16:22 | 36.67633 | -4.49814 | 43 ft | 7 kts | 312° |
| 2026-05-06 16:22 | 36.67665 | -4.49859 | 43 ft | 7 kts | 312° |
| 2026-05-06 16:23 | 36.67694 | -4.49900 | 43 ft | 6 kts | 310° |
| 2026-05-06 16:23 | 36.67718 | -4.49935 | 43 ft | 5 kts | 312° |
| 2026-05-06 16:23 | 36.67751 | -4.49980 | 44 ft | 10 kts | 313° |
| 2026-05-06 16:23 | 36.67812 | -4.50063 | 44 ft | 16 kts | 311° |
| 2026-05-06 16:24 | 36.67905 | -4.50190 | 44 ft | 23 kts | 314° |
| 2026-05-06 16:24 | 36.68017 | -4.50349 | 44 ft | 26 kts | 310° |
| 2026-05-06 16:24 | 36.68136 | -4.50520 | 44 ft | 27 kts | 311° |
| 2026-05-06 16:24 | 36.68265 | -4.50699 | 45 ft | 29 kts | 312° |
| 2026-05-06 16:25 | 36.68385 | -4.50868 | 49 ft | 23 kts | 311° |
| 2026-05-06 16:25 | 36.68461 | -4.50973 | 52 ft | 12 kts | 311° |
| 2026-05-06 16:25 | 36.68501 | -4.51042 | 54 ft | 8 kts | 291° |
| 2026-05-06 16:25 | 36.68501 | -4.51093 | 52 ft | 4 kts | 251° |
| 2026-05-06 16:26 | 36.68497 | -4.51106 | 54 ft | 0 kts | 250° |
| 2026-05-06 16:26 | 36.68477 | -4.51173 | 58 ft | 14 kts | 248° |
| 2026-05-06 16:26 | 36.68427 | -4.51220 | 60 ft | 8 kts | 154° |
| 2026-05-06 16:26 | 36.68411 | -4.51201 | 55 ft | 0 kts | 130° |
| 2026-05-06 16:27 | 36.68403 | -4.51188 | 61 ft | 10 kts | 130° |
| 2026-05-06 16:27 | 36.68230 | -4.50947 | 57 ft | 73 kts | 132° |
| 2026-05-06 16:27 | 36.67745 | -4.50266 | 54 ft | 134 kts | 131° |
| 2026-05-06 16:28 | 36.67051 | -4.49295 | 409 ft | 152 kts | 131° |
| 2026-05-06 16:28 | 36.66362 | -4.48287 | 1008 ft | 158 kts | 131° |
| 2026-05-06 16:28 | 36.65626 | -4.47205 | 1570 ft | 171 kts | 135° |
| 2026-05-06 16:28 | 36.64773 | -4.46031 | 1979 ft | 194 kts | 133° |
| 2026-05-06 16:29 | 36.63813 | -4.44719 | 2320 ft | 217 kts | 133° |
| 2026-05-06 16:29 | 36.62752 | -4.43262 | 2922 ft | 230 kts | 132° |
| 2026-05-06 16:29 | 36.61672 | -4.41770 | 3811 ft | 234 kts | 131° |
| 2026-05-06 16:29 | 36.60574 | -4.40231 | 4633 ft | 240 kts | 126° |
| 2026-05-06 16:30 | 36.59814 | -4.38408 | 5401 ft | 242 kts | 102° |
| 2026-05-06 16:30 | 36.59567 | -4.37020 | 5992 ft | 244 kts | 99° |
| 2026-05-06 16:30 | 36.59107 | -4.34262 | 7079 ft | 249 kts | 99° |
| 2026-05-06 16:30 | 36.58752 | -4.32128 | 7851 ft | 255 kts | 101° |
| 2026-05-06 16:31 | 36.58550 | -4.29913 | 8591 ft | 261 kts | 86° |
| 2026-05-06 16:31 | 36.58940 | -4.27680 | 9341 ft | 270 kts | 66° |
| 2026-05-06 16:31 | 36.59944 | -4.25677 | 10012 ft | 278 kts | 50° |
| 2026-05-06 16:31 | 36.61164 | -4.23787 | 10748 ft | 282 kts | 50° |
| 2026-05-06 16:32 | 36.62478 | -4.21947 | 11512 ft | 286 kts | 40° |
| 2026-05-06 16:32 | 36.64125 | -4.20531 | 12144 ft | 295 kts | 25° |
| 2026-05-06 16:32 | 36.66109 | -4.19597 | 12397 ft | 317 kts | 16° |
| 2026-05-06 16:32 | 36.68295 | -4.18722 | 12624 ft | 341 kts | 16° |
| 2026-05-06 16:33 | 36.70607 | -4.17789 | 13060 ft | 355 kts | 17° |
| 2026-05-06 16:33 | 36.72946 | -4.16848 | 13738 ft | 361 kts | 16° |
| 2026-05-06 16:33 | 36.75385 | -4.15886 | 14407 ft | 365 kts | 16° |
| 2026-05-06 16:34 | 36.80292 | -4.13980 | 15727 ft | 373 kts | 15° |
| 2026-05-06 16:34 | 36.82750 | -4.13030 | 16372 ft | 377 kts | 15° |
| 2026-05-06 16:34 | 36.85270 | -4.12056 | 17022 ft | 381 kts | 15° |
| 2026-05-06 16:34 | 36.87818 | -4.11069 | 17681 ft | 385 kts | 15° |
| 2026-05-06 16:35 | 36.90392 | -4.10070 | 18306 ft | 389 kts | 15° |
| 2026-05-06 16:35 | 36.92991 | -4.09058 | 18864 ft | 394 kts | 15° |
| 2026-05-06 16:35 | 36.95626 | -4.08027 | 19410 ft | 398 kts | 15° |
| 2026-05-06 16:35 | 36.98289 | -4.06982 | 19964 ft | 402 kts | 15° |
| 2026-05-06 16:36 | 37.00975 | -4.05927 | 20499 ft | 407 kts | 14° |
| 2026-05-06 16:36 | 37.03688 | -4.04860 | 21049 ft | 411 kts | 14° |
| 2026-05-06 16:36 | 37.06430 | -4.03782 | 21599 ft | 415 kts | 14° |
| 2026-05-06 16:36 | 37.09197 | -4.02692 | 22146 ft | 419 kts | 14° |
| 2026-05-06 16:37 | 37.11999 | -4.01591 | 22670 ft | 424 kts | 14° |
| 2026-05-06 16:37 | 37.14826 | -4.00480 | 23174 ft | 428 kts | 14° |
| 2026-05-06 16:37 | 37.17675 | -3.99358 | 23659 ft | 432 kts | 14° |
| 2026-05-06 16:37 | 37.20555 | -3.98232 | 24088 ft | 435 kts | 13° |
| 2026-05-06 16:38 | 37.23425 | -3.97143 | 24491 ft | 438 kts | 13° |
| 2026-05-06 16:38 | 37.26360 | -3.96051 | 24885 ft | 441 kts | 13° |
| 2026-05-06 16:38 | 37.29319 | -3.94963 | 25262 ft | 445 kts | 12° |
| 2026-05-06 16:38 | 37.32300 | -3.93870 | 25654 ft | 449 kts | 12° |
| 2026-05-06 16:39 | 37.35312 | -3.92760 | 26021 ft | 452 kts | 12° |
| 2026-05-06 16:39 | 37.38337 | -3.91636 | 26374 ft | 456 kts | 12° |
| 2026-05-06 16:39 | 37.41389 | -3.90495 | 26762 ft | 459 kts | 12° |
| 2026-05-06 16:39 | 37.44468 | -3.89339 | 27150 ft | 461 kts | 12° |
| 2026-05-06 16:40 | 37.47551 | -3.88176 | 27506 ft | 464 kts | 12° |
| 2026-05-06 16:40 | 37.50659 | -3.87000 | 27861 ft | 467 kts | 12° |
| 2026-05-06 16:40 | 37.53784 | -3.85819 | 28208 ft | 471 kts | 12° |
| 2026-05-06 16:40 | 37.56937 | -3.84628 | 28510 ft | 475 kts | 12° |
| 2026-05-06 16:41 | 37.60127 | -3.83428 | 28848 ft | 478 kts | 12° |
| 2026-05-06 16:41 | 37.63283 | -3.82243 | 29153 ft | 481 kts | 12° |
| 2026-05-06 16:41 | 37.66500 | -3.81035 | 29451 ft | 484 kts | 12° |
| 2026-05-06 16:41 | 37.69739 | -3.79812 | 29775 ft | 486 kts | 12° |
| 2026-05-06 16:42 | 37.72999 | -3.78579 | 30058 ft | 489 kts | 12° |
| 2026-05-06 16:42 | 37.76265 | -3.77337 | 30296 ft | 491 kts | 12° |
| 2026-05-06 16:42 | 37.79545 | -3.76089 | 30535 ft | 493 kts | 12° |
| 2026-05-06 16:42 | 37.82839 | -3.74836 | 30771 ft | 496 kts | 11° |
| 2026-05-06 16:43 | 37.86152 | -3.73577 | 31002 ft | 498 kts | 11° |
| 2026-05-06 16:43 | 37.89472 | -3.72317 | 31239 ft | 499 kts | 11° |
| 2026-05-06 16:43 | 37.92801 | -3.71053 | 31549 ft | 499 kts | 12° |
| 2026-05-06 16:43 | 37.96131 | -3.69789 | 31808 ft | 499 kts | 11° |
| 2026-05-06 16:44 | 37.99435 | -3.68531 | 31861 ft | 489 kts | 11° |
| 2026-05-06 16:44 | 38.05845 | -3.66072 | 31865 ft | 477 kts | 11° |
| 2026-05-06 16:45 | 38.12203 | -3.63648 | 31866 ft | 476 kts | 11° |
| 2026-05-06 16:45 | 38.18580 | -3.62153 | 31866 ft | 464 kts | 357° |
| 2026-05-06 16:46 | 38.25026 | -3.61541 | 31866 ft | 464 kts | 357° |
| 2026-05-06 16:46 | 38.31467 | -3.60921 | 31861 ft | 464 kts | 358° |
| 2026-05-06 16:47 | 38.37914 | -3.60291 | 31863 ft | 464 kts | 358° |
| 2026-05-06 16:47 | 38.44327 | -3.59670 | 31860 ft | 464 kts | 358° |
| 2026-05-06 16:48 | 38.50768 | -3.59047 | 31860 ft | 464 kts | 358° |
| 2026-05-06 16:48 | 38.57207 | -3.58424 | 31858 ft | 463 kts | 358° |
| 2026-05-06 16:49 | 38.63633 | -3.57796 | 31889 ft | 463 kts | 358° |
| 2026-05-06 16:49 | 38.70014 | -3.57168 | 31883 ft | 462 kts | 358° |
| 2026-05-06 16:50 | 38.76425 | -3.56536 | 31883 ft | 462 kts | 358° |
| 2026-05-06 16:50 | 38.82827 | -3.55907 | 31853 ft | 462 kts | 358° |
| 2026-05-06 16:50 | 38.84995 | -3.55694 | 31702 ft | 461 kts | 358° |
| 2026-05-06 16:51 | 38.89215 | -3.55278 | 31049 ft | 457 kts | 358° |
| 2026-05-06 16:51 | 38.92384 | -3.54966 | 30449 ft | 455 kts | 359° |
| 2026-05-06 16:51 | 38.95533 | -3.54763 | 29843 ft | 448 kts | 352° |
| 2026-05-06 16:51 | 38.98591 | -3.55157 | 29282 ft | 435 kts | 343° |
| 2026-05-06 16:52 | 39.01471 | -3.56130 | 28772 ft | 422 kts | 334° |
| 2026-05-06 16:52 | 39.04085 | -3.57594 | 28286 ft | 409 kts | 325° |
| 2026-05-06 16:52 | 39.06504 | -3.59470 | 27803 ft | 400 kts | 321° |
| 2026-05-06 16:52 | 39.08848 | -3.61369 | 27342 ft | 395 kts | 322° |
| 2026-05-06 16:53 | 39.11162 | -3.63240 | 26884 ft | 390 kts | 322° |
| 2026-05-06 16:53 | 39.13451 | -3.65088 | 26447 ft | 386 kts | 322° |
| 2026-05-06 16:53 | 39.15691 | -3.66897 | 26025 ft | 382 kts | 322° |
| 2026-05-06 16:53 | 39.17926 | -3.68709 | 25604 ft | 377 kts | 322° |
| 2026-05-06 16:54 | 39.20138 | -3.70509 | 25199 ft | 373 kts | 322° |
| 2026-05-06 16:54 | 39.22325 | -3.72289 | 24795 ft | 369 kts | 322° |
| 2026-05-06 16:54 | 39.23758 | -3.73453 | 24528 ft | 367 kts | 322° |
| 2026-05-06 16:54 | 39.25911 | -3.75198 | 24133 ft | 363 kts | 322° |
| 2026-05-06 16:55 | 39.28040 | -3.76924 | 23735 ft | 359 kts | 323° |
| 2026-05-06 16:55 | 39.30145 | -3.78637 | 23311 ft | 356 kts | 323° |
| 2026-05-06 16:55 | 39.32901 | -3.80888 | 22739 ft | 350 kts | 323° |
| 2026-05-06 16:55 | 39.34287 | -3.82021 | 22477 ft | 347 kts | 323° |
| 2026-05-06 16:56 | 39.36313 | -3.83679 | 22069 ft | 343 kts | 323° |
| 2026-05-06 16:56 | 39.38318 | -3.85324 | 21672 ft | 340 kts | 323° |
| 2026-05-06 16:56 | 39.40307 | -3.86955 | 21270 ft | 336 kts | 323° |
| 2026-05-06 16:56 | 39.42248 | -3.88545 | 20873 ft | 334 kts | 323° |
| 2026-05-06 16:57 | 39.44261 | -3.90198 | 20489 ft | 347 kts | 323° |
| 2026-05-06 16:57 | 39.46313 | -3.91889 | 20087 ft | 352 kts | 323° |
| 2026-05-06 16:57 | 39.48380 | -3.93581 | 19676 ft | 351 kts | 323° |
| 2026-05-06 16:57 | 39.50443 | -3.95266 | 19279 ft | 349 kts | 324° |
| 2026-05-06 16:58 | 39.52492 | -3.96941 | 18887 ft | 348 kts | 324° |
| 2026-05-06 16:58 | 39.54534 | -3.98613 | 18475 ft | 346 kts | 324° |
| 2026-05-06 16:58 | 39.56562 | -4.00278 | 18068 ft | 344 kts | 324° |
| 2026-05-06 16:58 | 39.58547 | -4.01913 | 17655 ft | 342 kts | 324° |
| 2026-05-06 16:59 | 39.60550 | -4.03567 | 17265 ft | 340 kts | 324° |
| 2026-05-06 16:59 | 39.62546 | -4.05217 | 16876 ft | 339 kts | 324° |
| 2026-05-06 16:59 | 39.64558 | -4.06796 | 16482 ft | 339 kts | 332° |
| 2026-05-06 16:59 | 39.66831 | -4.07664 | 16100 ft | 343 kts | 351° |
| 2026-05-06 17:00 | 39.69217 | -4.07523 | 15696 ft | 346 kts | 11° |
| 2026-05-06 17:00 | 39.71447 | -4.06353 | 15288 ft | 348 kts | 31° |
| 2026-05-06 17:00 | 39.73285 | -4.04312 | 14879 ft | 347 kts | 45° |
| 2026-05-06 17:00 | 39.74947 | -4.02104 | 14479 ft | 346 kts | 45° |
| 2026-05-06 17:01 | 39.76614 | -3.99891 | 14306 ft | 337 kts | 45° |
| 2026-05-06 17:01 | 39.78228 | -3.97750 | 14178 ft | 326 kts | 45° |
| 2026-05-06 17:01 | 39.79797 | -3.95670 | 14064 ft | 317 kts | 45° |
| 2026-05-06 17:01 | 39.81319 | -3.93657 | 13943 ft | 308 kts | 45° |
| 2026-05-06 17:02 | 39.82801 | -3.91695 | 13821 ft | 299 kts | 45° |
| 2026-05-06 17:02 | 39.84241 | -3.89790 | 13705 ft | 291 kts | 45° |
| 2026-05-06 17:02 | 39.85643 | -3.87932 | 13383 ft | 285 kts | 45° |
| 2026-05-06 17:02 | 39.87029 | -3.86096 | 12968 ft | 283 kts | 45° |
| 2026-05-06 17:03 | 39.88403 | -3.84270 | 12537 ft | 280 kts | 45° |
| 2026-05-06 17:03 | 39.89761 | -3.82464 | 12153 ft | 277 kts | 45° |
| 2026-05-06 17:03 | 39.91079 | -3.80706 | 11779 ft | 273 kts | 45° |
| 2026-05-06 17:03 | 39.92395 | -3.78949 | 11475 ft | 269 kts | 45° |
| 2026-05-06 17:04 | 39.93697 | -3.77213 | 11182 ft | 267 kts | 45° |
| 2026-05-06 17:04 | 39.94995 | -3.75486 | 10894 ft | 266 kts | 45° |
| 2026-05-06 17:04 | 39.96287 | -3.73765 | 10609 ft | 264 kts | 46° |
| 2026-05-06 17:04 | 39.97564 | -3.72060 | 10331 ft | 262 kts | 46° |
| 2026-05-06 17:05 | 39.98832 | -3.70365 | 10054 ft | 260 kts | 46° |
| 2026-05-06 17:05 | 40.00088 | -3.68685 | 9769 ft | 258 kts | 46° |
| 2026-05-06 17:05 | 40.01343 | -3.67007 | 9471 ft | 258 kts | 45° |
| 2026-05-06 17:05 | 40.02590 | -3.65344 | 9196 ft | 256 kts | 46° |
| 2026-05-06 17:06 | 40.03833 | -3.63682 | 8907 ft | 255 kts | 46° |
| 2026-05-06 17:06 | 40.05067 | -3.62030 | 8647 ft | 253 kts | 46° |
| 2026-05-06 17:06 | 40.06294 | -3.60386 | 8374 ft | 252 kts | 45° |
| 2026-05-06 17:06 | 40.07517 | -3.58748 | 8102 ft | 251 kts | 46° |
| 2026-05-06 17:07 | 40.08736 | -3.57117 | 7829 ft | 250 kts | 46° |
| 2026-05-06 17:07 | 40.09946 | -3.55494 | 7563 ft | 249 kts | 46° |
| 2026-05-06 17:07 | 40.11150 | -3.53880 | 7299 ft | 247 kts | 46° |
| 2026-05-06 17:07 | 40.12349 | -3.52270 | 7032 ft | 246 kts | 46° |
| 2026-05-06 17:08 | 40.13538 | -3.50669 | 6771 ft | 245 kts | 46° |
| 2026-05-06 17:08 | 40.14721 | -3.49072 | 6493 ft | 244 kts | 46° |
| 2026-05-06 17:08 | 40.15899 | -3.47481 | 6238 ft | 243 kts | 46° |
| 2026-05-06 17:08 | 40.17075 | -3.45902 | 5965 ft | 242 kts | 45° |
| 2026-05-06 17:09 | 40.18278 | -3.44407 | 5650 ft | 241 kts | 42° |
| 2026-05-06 17:09 | 40.19522 | -3.42941 | 5333 ft | 240 kts | 41° |
| 2026-05-06 17:09 | 40.20786 | -3.41515 | 5062 ft | 237 kts | 35° |
| 2026-05-06 17:09 | 40.22216 | -3.40431 | 5003 ft | 238 kts | 28° |
| 2026-05-06 17:10 | 40.23673 | -3.39395 | 5006 ft | 239 kts | 28° |
| 2026-05-06 17:10 | 40.25220 | -3.38611 | 5007 ft | 239 kts | 11° |
| 2026-05-06 17:10 | 40.26844 | -3.38511 | 5005 ft | 233 kts | 353° |
| 2026-05-06 17:10 | 40.28442 | -3.38804 | 4607 ft | 236 kts | 352° |
| 2026-05-06 17:11 | 40.30070 | -3.39238 | 4155 ft | 239 kts | 338° |
| 2026-05-06 17:11 | 40.31444 | -3.40362 | 4003 ft | 227 kts | 322° |
| 2026-05-06 17:11 | 40.32674 | -3.41599 | 4007 ft | 218 kts | 322° |
| 2026-05-06 17:11 | 40.33843 | -3.42776 | 4005 ft | 207 kts | 322° |
| 2026-05-06 17:12 | 40.34973 | -3.43916 | 4005 ft | 204 kts | 322° |
| 2026-05-06 17:12 | 40.36079 | -3.45033 | 4011 ft | 202 kts | 322° |
| 2026-05-06 17:12 | 40.37196 | -3.46161 | 4014 ft | 201 kts | 322° |
| 2026-05-06 17:12 | 40.38258 | -3.47235 | 3939 ft | 185 kts | 322° |
| 2026-05-06 17:13 | 40.39248 | -3.48236 | 3708 ft | 174 kts | 322° |
| 2026-05-06 17:13 | 40.40181 | -3.49179 | 3481 ft | 164 kts | 322° |
| 2026-05-06 17:13 | 40.41052 | -3.50061 | 3288 ft | 153 kts | 321° |
| 2026-05-06 17:13 | 40.41882 | -3.50902 | 3100 ft | 148 kts | 322° |
| 2026-05-06 17:14 | 40.42693 | -3.51725 | 2871 ft | 147 kts | 322° |
| 2026-05-06 17:14 | 40.43493 | -3.52548 | 2669 ft | 145 kts | 321° |
| 2026-05-06 17:14 | 40.44283 | -3.53349 | 2498 ft | 149 kts | 326° |
| 2026-05-06 17:14 | 40.45167 | -3.54198 | 2271 ft | 159 kts | 324° |
| 2026-05-06 17:15 | 40.45988 | -3.55068 | 2063 ft | 146 kts | 322° |
| 2026-05-06 17:15 | 40.46755 | -3.55844 | 1971 ft | 129 kts | 322° |
| 2026-05-06 17:15 | 40.47348 | -3.56458 | 1989 ft | 88 kts | 323° |
| 2026-05-06 17:15 | 40.47731 | -3.56835 | 1995 ft | 32 kts | 323° |
| 2026-05-06 17:16 | 40.47900 | -3.57001 | 1998 ft | 29 kts | 323° |
| 2026-05-06 17:16 | 40.48037 | -3.57156 | 2006 ft | 24 kts | 314° |
| 2026-05-06 17:16 | 40.48117 | -3.57281 | 2004 ft | 11 kts | 300° |
| 2026-05-06 17:16 | 40.48159 | -3.57384 | 2004 ft | 14 kts | 297° |
| 2026-05-06 17:17 | 40.48169 | -3.57411 | 2002 ft | 3 kts | 296° |
| 2026-05-06 17:17 | 40.48173 | -3.57453 | 2002 ft | 7 kts | 259° |
| 2026-05-06 17:17 | 40.48129 | -3.57494 | 1999 ft | 9 kts | 180° |
| 2026-05-06 17:17 | 40.48072 | -3.57447 | 2002 ft | 10 kts | 142° |
| 2026-05-06 17:18 | 40.48018 | -3.57391 | 2003 ft | 9 kts | 142° |
| 2026-05-06 17:18 | 40.47976 | -3.57349 | 2004 ft | 7 kts | 143° |
| 2026-05-06 17:18 | 40.47935 | -3.57323 | 2005 ft | 7 kts | 179° |
| 2026-05-06 17:18 | 40.47908 | -3.57376 | 2004 ft | 9 kts | 274° |
| 2026-05-06 17:19 | 40.47958 | -3.57449 | 2003 ft | 13 kts | 322° |
| 2026-05-06 17:19 | 40.48040 | -3.57532 | 2001 ft | 17 kts | 323° |
| 2026-05-06 17:19 | 40.48141 | -3.57635 | 1998 ft | 20 kts | 323° |
| 2026-05-06 17:19 | 40.48260 | -3.57753 | 1994 ft | 23 kts | 323° |
| 2026-05-06 17:20 | 40.48398 | -3.57886 | 1991 ft | 26 kts | 326° |
| 2026-05-06 17:20 | 40.48487 | -3.57961 | 1997 ft | 8 kts | 327° |
| 2026-05-06 17:20 | 40.48514 | -3.58004 | 2000 ft | 4 kts | 279° |
| 2026-05-06 17:20 | 40.48513 | -3.58038 | 2002 ft | 4 kts | 265° |
| 2026-05-06 17:21 | 40.48511 | -3.58083 | 2004 ft | 7 kts | 271° |
| 2026-05-06 17:21 | 40.48510 | -3.58174 | 2007 ft | 13 kts | 267° |
| 2026-05-06 17:21 | 40.48511 | -3.58312 | 2010 ft | 18 kts | 273° |
| 2026-05-06 17:21 | 40.48510 | -3.58475 | 2018 ft | 18 kts | 269° |
| 2026-05-06 17:22 | 40.48508 | -3.58632 | 2030 ft | 17 kts | 268° |
| 2026-05-06 17:22 | 40.48526 | -3.58792 | 2029 ft | 18 kts | 315° |
| 2026-05-06 17:22 | 40.48635 | -3.58811 | 2027 ft | 12 kts | 354° |
| 2026-05-06 17:22 | 40.48669 | -3.58845 | 2024 ft | 2 kts | 270° |
| 2026-05-06 17:23 | 40.48666 | -3.58874 | 2022 ft | 5 kts | 265° |
| 2026-05-06 17:23 | 40.48667 | -3.58938 | 2022 ft | 3 kts | 269° |
| 2026-05-06 17:23 | 40.48667 | -3.58944 | 2022 ft | 0 kts | 269° |